Zug, Switzerland
Current Conditions -  °F | °C
As of 2:50 PM on Friday 19 Dec 2014 (Local Time) from LSME Reporting Station
Clear Clear  
Wind Chill: 50°   Ceiling: Unl
Heat Index: 50°   Visibility: 6mi
Dew Point: 45°   Wind: 5mph
Humidity: 82%   Direction: 240°WSW
Pressure: 30.18"   Gusts: NA
Location:  47.18°N, 8.52°E
Report Text: LSME 191350Z AUTO 24004KT 120V280 9999NDV NCD 10/07 Q1022 RMK BLU
Loading
Personal Weather Stations






























Interactive Weather Map New forecast layout! Learn more

10-Day Weather Forecast

Advertisements
Track Severe Weather on mobile